Grasonville, Maryland
Current Conditions -  °F | °C
As of 4:12 AM on Sunday 21 Dec 2014 (Local Time) from KESN Reporting Station
Broken Clouds Broken Clouds  
Wind Chill: 32°   Ceiling: 8500
Heat Index: 32°   Visibility: 7mi
Dew Point: 32°   Wind: 0mph
Humidity: 100%   Direction: NA
Pressure: 30.34"   Gusts: NA
Location:  38.96°N, 76.21°W
Report Text: KESN 210912Z AUTO 00000KT 7SM BKN085 00/00 A3034 RMK AO2 T00000000
Loading
Personal Weather Stations






























Interactive Weather Map New forecast layout! Learn more

10-Day Weather Forecast

Advertisements
Track Severe Weather on mobile